sensor_id;sensor_type;location;lat;lon;timestamp;P1;durP1;ratioP1;P2;durP2;ratioP2
67156;SDS011;54086;50.126;8.710;2022-09-03T00:07:27;5.75;;;1.50;;
67156;SDS011;54086;50.126;8.710;2022-09-03T00:10:04;3.63;;;1.50;;
67156;SDS011;54086;50.126;8.710;2022-09-03T00:12:35;5.63;;;1.60;;
67156;SDS011;54086;50.126;8.710;2022-09-03T00:15:05;4.68;;;1.75;;
67156;SDS011;54086;50.126;8.710;2022-09-03T00:17:45;4.30;;;1.73;;
67156;SDS011;54086;50.126;8.710;2022-09-03T00:23:05;6.15;;;1.88;;
67156;SDS011;54086;50.126;8.710;2022-09-03T00:28:11;3.78;;;1.48;;
67156;SDS011;54086;50.126;8.710;2022-09-03T00:30:40;4.67;;;1.40;;
67156;SDS011;54086;50.126;8.710;2022-09-03T00:33:10;3.97;;;1.60;;
67156;SDS011;54086;50.126;8.710;2022-09-03T00:35:50;5.38;;;1.73;;
67156;SDS011;54086;50.126;8.710;2022-09-03T00:38:21;3.58;;;1.48;;
67156;SDS011;54086;50.126;8.710;2022-09-03T00:46:29;4.07;;;1.60;;
67156;SDS011;54086;50.126;8.710;2022-09-03T00:49:16;3.72;;;1.73;;
67156;SDS011;54086;50.126;8.710;2022-09-03T00:55:15;4.18;;;1.80;;
67156;SDS011;54086;50.126;8.710;2022-09-03T01:00:22;4.38;;;1.67;;
67156;SDS011;54086;50.126;8.710;2022-09-03T01:03:05;3.80;;;1.53;;
67156;SDS011;54086;50.126;8.710;2022-09-03T01:11:08;7.28;;;2.05;;
67156;SDS011;54086;50.126;8.710;2022-09-03T01:13:53;4.78;;;1.58;;
67156;SDS011;54086;50.126;8.710;2022-09-03T01:30:43;3.80;;;1.50;;
67156;SDS011;54086;50.126;8.710;2022-09-03T01:39:14;4.55;;;1.52;;
67156;SDS011;54086;50.126;8.710;2022-09-03T01:48:03;4.97;;;1.80;;
67156;SDS011;54086;50.126;8.710;2022-09-03T01:53:41;4.35;;;1.67;;
67156;SDS011;54086;50.126;8.710;2022-09-03T01:59:08;4.37;;;1.60;;
67156;SDS011;54086;50.126;8.710;2022-09-03T02:01:42;4.20;;;1.73;;
67156;SDS011;54086;50.126;8.710;2022-09-03T02:04:15;4.60;;;1.88;;
67156;SDS011;54086;50.126;8.710;2022-09-03T02:06:44;3.95;;;1.65;;
67156;SDS011;54086;50.126;8.710;2022-09-03T02:09:13;3.78;;;1.55;;
67156;SDS011;54086;50.126;8.710;2022-09-03T02:11:39;6.60;;;1.93;;
67156;SDS011;54086;50.126;8.710;2022-09-03T02:14:05;5.10;;;1.67;;
67156;SDS011;54086;50.126;8.710;2022-09-03T02:16:31;5.30;;;1.70;;
67156;SDS011;54086;50.126;8.710;2022-09-03T02:19:03;8.48;;;1.73;;
67156;SDS011;54086;50.126;8.710;2022-09-03T02:21:34;5.70;;;1.80;;
67156;SDS011;54086;50.126;8.710;2022-09-03T02:24:02;7.18;;;1.92;;
67156;SDS011;54086;50.126;8.710;2022-09-03T02:26:29;3.63;;;1.45;;
67156;SDS011;54086;50.126;8.710;2022-09-03T02:28:54;4.63;;;1.60;;
67156;SDS011;54086;50.126;8.710;2022-09-03T02:31:21;5.18;;;1.88;;
67156;SDS011;54086;50.126;8.710;2022-09-03T02:33:47;4.53;;;1.70;;
67156;SDS011;54086;50.126;8.710;2022-09-03T02:36:14;9.05;;;2.67;;
67156;SDS011;54086;50.126;8.710;2022-09-03T02:38:44;5.03;;;1.80;;
67156;SDS011;54086;50.126;8.710;2022-09-03T02:41:10;5.10;;;2.00;;
67156;SDS011;54086;50.126;8.710;2022-09-03T02:46:20;6.03;;;1.80;;
67156;SDS011;54086;50.126;8.710;2022-09-03T02:48:49;5.35;;;1.55;;
67156;SDS011;54086;50.126;8.710;2022-09-03T02:51:14;3.97;;;1.40;;
67156;SDS011;54086;50.126;8.710;2022-09-03T02:53:40;5.40;;;1.87;;
67156;SDS011;54086;50.126;8.710;2022-09-03T02:56:06;3.55;;;1.40;;
67156;SDS011;54086;50.126;8.710;2022-09-03T02:58:32;7.00;;;1.50;;
67156;SDS011;54086;50.126;8.710;2022-09-03T03:00:57;4.87;;;1.67;;
67156;SDS011;54086;50.126;8.710;2022-09-03T03:03:23;5.65;;;1.70;;
67156;SDS011;54086;50.126;8.710;2022-09-03T03:05:50;5.10;;;2.25;;
67156;SDS011;54086;50.126;8.710;2022-09-03T03:08:19;5.10;;;1.80;;
67156;SDS011;54086;50.126;8.710;2022-09-03T03:10:48;3.47;;;1.52;;
67156;SDS011;54086;50.126;8.710;2022-09-03T03:13:16;4.00;;;1.52;;
67156;SDS011;54086;50.126;8.710;2022-09-03T03:15:42;4.45;;;1.70;;
67156;SDS011;54086;50.126;8.710;2022-09-03T03:18:08;5.47;;;1.70;;
67156;SDS011;54086;50.126;8.710;2022-09-03T03:20:36;5.18;;;1.90;;
67156;SDS011;54086;50.126;8.710;2022-09-03T03:23:02;5.68;;;1.70;;
67156;SDS011;54086;50.126;8.710;2022-09-03T03:25:30;3.63;;;1.50;;
67156;SDS011;54086;50.126;8.710;2022-09-03T03:27:56;5.20;;;1.63;;
67156;SDS011;54086;50.126;8.710;2022-09-03T03:30:22;5.33;;;1.90;;
67156;SDS011;54086;50.126;8.710;2022-09-03T03:32:48;5.40;;;1.90;;
67156;SDS011;54086;50.126;8.710;2022-09-03T03:35:13;4.17;;;1.63;;
67156;SDS011;54086;50.126;8.710;2022-09-03T03:37:39;4.53;;;1.70;;
67156;SDS011;54086;50.126;8.710;2022-09-03T03:40:04;6.45;;;1.70;;
67156;SDS011;54086;50.126;8.710;2022-09-03T03:42:34;5.30;;;1.80;;
67156;SDS011;54086;50.126;8.710;2022-09-03T03:45:00;4.87;;;1.90;;
67156;SDS011;54086;50.126;8.710;2022-09-03T03:47:27;5.45;;;2.08;;
67156;SDS011;54086;50.126;8.710;2022-09-03T03:49:59;4.50;;;1.80;;
67156;SDS011;54086;50.126;8.710;2022-09-03T03:52:25;5.53;;;1.90;;
67156;SDS011;54086;50.126;8.710;2022-09-03T03:54:51;5.97;;;1.80;;
67156;SDS011;54086;50.126;8.710;2022-09-03T03:57:18;4.43;;;1.77;;
67156;SDS011;54086;50.126;8.710;2022-09-03T03:59:44;4.97;;;1.88;;
67156;SDS011;54086;50.126;8.710;2022-09-03T04:02:10;4.75;;;1.70;;
67156;SDS011;54086;50.126;8.710;2022-09-03T04:04:35;4.77;;;1.90;;
67156;SDS011;54086;50.126;8.710;2022-09-03T04:07:01;7.57;;;1.90;;
67156;SDS011;54086;50.126;8.710;2022-09-03T04:09:26;4.17;;;1.70;;
67156;SDS011;54086;50.126;8.710;2022-09-03T04:11:51;4.93;;;1.77;;
67156;SDS011;54086;50.126;8.710;2022-09-03T04:14:17;4.37;;;1.63;;
67156;SDS011;54086;50.126;8.710;2022-09-03T04:16:42;5.90;;;1.80;;
67156;SDS011;54086;50.126;8.710;2022-09-03T04:19:10;5.40;;;1.85;;
67156;SDS011;54086;50.126;8.710;2022-09-03T04:21:36;5.38;;;2.10;;
67156;SDS011;54086;50.126;8.710;2022-09-03T04:24:02;5.73;;;1.97;;
67156;SDS011;54086;50.126;8.710;2022-09-03T04:26:29;5.40;;;1.73;;
67156;SDS011;54086;50.126;8.710;2022-09-03T04:28:56;5.10;;;2.17;;
67156;SDS011;54086;50.126;8.710;2022-09-03T04:31:22;4.53;;;1.60;;
67156;SDS011;54086;50.126;8.710;2022-09-03T04:33:47;5.27;;;1.80;;
67156;SDS011;54086;50.126;8.710;2022-09-03T04:36:17;6.40;;;1.90;;
67156;SDS011;54086;50.126;8.710;2022-09-03T04:38:45;4.40;;;1.55;;
67156;SDS011;54086;50.126;8.710;2022-09-03T04:41:15;4.40;;;1.52;;
67156;SDS011;54086;50.126;8.710;2022-09-03T04:43:42;4.47;;;1.73;;
67156;SDS011;54086;50.126;8.710;2022-09-03T04:46:08;5.10;;;2.08;;
67156;SDS011;54086;50.126;8.710;2022-09-03T04:48:34;5.43;;;1.77;;
67156;SDS011;54086;50.126;8.710;2022-09-03T04:51:02;4.80;;;1.80;;
67156;SDS011;54086;50.126;8.710;2022-09-03T04:53:30;5.07;;;1.80;;
67156;SDS011;54086;50.126;8.710;2022-09-03T04:55:56;5.07;;;1.92;;
67156;SDS011;54086;50.126;8.710;2022-09-03T04:58:22;6.30;;;2.10;;
67156;SDS011;54086;50.126;8.710;2022-09-03T05:00:47;6.37;;;2.33;;
67156;SDS011;54086;50.126;8.710;2022-09-03T05:03:13;5.03;;;1.80;;
67156;SDS011;54086;50.126;8.710;2022-09-03T05:05:38;6.00;;;1.80;;
67156;SDS011;54086;50.126;8.710;2022-09-03T05:08:03;4.73;;;1.67;;
67156;SDS011;54086;50.126;8.710;2022-09-03T05:10:29;8.23;;;2.10;;
67156;SDS011;54086;50.126;8.710;2022-09-03T05:12:59;4.90;;;1.60;;
67156;SDS011;54086;50.126;8.710;2022-09-03T05:15:26;5.45;;;2.00;;
67156;SDS011;54086;50.126;8.710;2022-09-03T05:17:56;5.10;;;1.90;;
67156;SDS011;54086;50.126;8.710;2022-09-03T05:20:23;5.40;;;1.95;;
67156;SDS011;54086;50.126;8.710;2022-09-03T05:22:49;5.68;;;1.80;;
67156;SDS011;54086;50.126;8.710;2022-09-03T05:25:14;6.23;;;1.77;;
67156;SDS011;54086;50.126;8.710;2022-09-03T05:27:40;5.13;;;1.90;;
67156;SDS011;54086;50.126;8.710;2022-09-03T05:30:06;5.17;;;1.77;;
67156;SDS011;54086;50.126;8.710;2022-09-03T05:32:31;4.47;;;1.83;;
67156;SDS011;54086;50.126;8.710;2022-09-03T05:34:58;5.30;;;1.75;;
67156;SDS011;54086;50.126;8.710;2022-09-03T05:37:23;11.43;;;2.20;;
67156;SDS011;54086;50.126;8.710;2022-09-03T05:39:49;5.53;;;1.90;;
67156;SDS011;54086;50.126;8.710;2022-09-03T05:42:14;5.88;;;1.75;;
67156;SDS011;54086;50.126;8.710;2022-09-03T05:44:40;5.27;;;1.80;;
67156;SDS011;54086;50.126;8.710;2022-09-03T05:47:07;4.22;;;1.70;;
67156;SDS011;54086;50.126;8.710;2022-09-03T05:49:32;4.23;;;1.73;;
67156;SDS011;54086;50.126;8.710;2022-09-03T05:51:58;8.17;;;1.73;;
67156;SDS011;54086;50.126;8.710;2022-09-03T05:54:23;4.97;;;1.80;;
67156;SDS011;54086;50.126;8.710;2022-09-03T05:56:48;5.50;;;1.67;;
67156;SDS011;54086;50.126;8.710;2022-09-03T05:59:14;7.97;;;2.00;;
67156;SDS011;54086;50.126;8.710;2022-09-03T06:01:40;5.30;;;2.00;;
67156;SDS011;54086;50.126;8.710;2022-09-03T06:04:08;6.25;;;2.25;;
67156;SDS011;54086;50.126;8.710;2022-09-03T06:06:36;7.75;;;1.80;;
67156;SDS011;54086;50.126;8.710;2022-09-03T06:09:07;5.85;;;2.15;;
67156;SDS011;54086;50.126;8.710;2022-09-03T06:11:36;8.10;;;2.00;;
67156;SDS011;54086;50.126;8.710;2022-09-03T06:14:03;4.33;;;1.90;;
67156;SDS011;54086;50.126;8.710;2022-09-03T06:16:31;4.95;;;1.80;;
67156;SDS011;54086;50.126;8.710;2022-09-03T06:18:58;7.88;;;2.00;;
67156;SDS011;54086;50.126;8.710;2022-09-03T06:21:24;5.93;;;2.00;;
67156;SDS011;54086;50.126;8.710;2022-09-03T06:23:50;5.90;;;2.20;;
67156;SDS011;54086;50.126;8.710;2022-09-03T06:26:17;5.45;;;1.80;;
67156;SDS011;54086;50.126;8.710;2022-09-03T06:28:44;5.82;;;2.42;;
67156;SDS011;54086;50.126;8.710;2022-09-03T06:31:10;5.22;;;1.95;;
67156;SDS011;54086;50.126;8.710;2022-09-03T06:33:37;6.30;;;2.30;;
67156;SDS011;54086;50.126;8.710;2022-09-03T06:36:05;5.43;;;2.00;;
67156;SDS011;54086;50.126;8.710;2022-09-03T06:38:32;5.90;;;1.90;;
67156;SDS011;54086;50.126;8.710;2022-09-03T06:41:01;7.30;;;2.40;;
67156;SDS011;54086;50.126;8.710;2022-09-03T06:43:32;5.13;;;2.10;;
67156;SDS011;54086;50.126;8.710;2022-09-03T06:46:00;4.77;;;1.90;;
67156;SDS011;54086;50.126;8.710;2022-09-03T06:48:29;4.20;;;2.00;;
67156;SDS011;54086;50.126;8.710;2022-09-03T06:51:02;5.80;;;2.30;;
67156;SDS011;54086;50.126;8.710;2022-09-03T06:53:32;6.05;;;2.10;;
67156;SDS011;54086;50.126;8.710;2022-09-03T06:56:00;6.07;;;2.20;;
67156;SDS011;54086;50.126;8.710;2022-09-03T06:58:30;5.93;;;1.90;;
67156;SDS011;54086;50.126;8.710;2022-09-03T07:01:05;5.65;;;2.15;;
67156;SDS011;54086;50.126;8.710;2022-09-03T07:03:35;5.53;;;2.13;;
67156;SDS011;54086;50.126;8.710;2022-09-03T07:06:03;5.65;;;2.03;;
67156;SDS011;54086;50.126;8.710;2022-09-03T07:08:30;5.68;;;2.30;;
67156;SDS011;54086;50.126;8.710;2022-09-03T07:11:04;5.83;;;1.90;;
67156;SDS011;54086;50.126;8.710;2022-09-03T07:13:40;6.03;;;2.22;;
67156;SDS011;54086;50.126;8.710;2022-09-03T07:16:08;4.68;;;1.90;;
67156;SDS011;54086;50.126;8.710;2022-09-03T07:18:45;5.68;;;2.22;;
67156;SDS011;54086;50.126;8.710;2022-09-03T07:21:12;6.20;;;1.90;;
67156;SDS011;54086;50.126;8.710;2022-09-03T07:23:39;11.70;;;2.30;;
67156;SDS011;54086;50.126;8.710;2022-09-03T07:26:06;6.18;;;2.38;;
67156;SDS011;54086;50.126;8.710;2022-09-03T07:28:37;5.70;;;2.33;;
67156;SDS011;54086;50.126;8.710;2022-09-03T07:31:06;8.43;;;2.70;;
67156;SDS011;54086;50.126;8.710;2022-09-03T07:33:31;7.68;;;2.53;;
67156;SDS011;54086;50.126;8.710;2022-09-03T07:36:01;5.93;;;2.42;;
67156;SDS011;54086;50.126;8.710;2022-09-03T07:38:30;5.72;;;2.10;;
67156;SDS011;54086;50.126;8.710;2022-09-03T07:40:56;5.10;;;2.20;;
67156;SDS011;54086;50.126;8.710;2022-09-03T07:43:24;6.60;;;2.10;;
67156;SDS011;54086;50.126;8.710;2022-09-03T07:45:53;8.57;;;2.22;;
67156;SDS011;54086;50.126;8.710;2022-09-03T07:48:21;8.93;;;2.85;;
67156;SDS011;54086;50.126;8.710;2022-09-03T07:50:47;8.32;;;2.13;;
67156;SDS011;54086;50.126;8.710;2022-09-03T07:53:15;5.10;;;2.17;;
67156;SDS011;54086;50.126;8.710;2022-09-03T07:55:41;6.72;;;2.58;;
67156;SDS011;54086;50.126;8.710;2022-09-03T07:58:08;5.95;;;2.53;;
67156;SDS011;54086;50.126;8.710;2022-09-03T08:00:35;6.30;;;2.40;;
67156;SDS011;54086;50.126;8.710;2022-09-03T08:03:00;6.40;;;2.27;;
67156;SDS011;54086;50.126;8.710;2022-09-03T08:05:31;5.50;;;2.30;;
67156;SDS011;54086;50.126;8.710;2022-09-03T08:07:58;7.78;;;2.88;;
67156;SDS011;54086;50.126;8.710;2022-09-03T08:10:25;6.43;;;2.50;;
67156;SDS011;54086;50.126;8.710;2022-09-03T08:12:54;7.72;;;2.70;;
67156;SDS011;54086;50.126;8.710;2022-09-03T08:15:20;6.80;;;2.60;;
67156;SDS011;54086;50.126;8.710;2022-09-03T08:17:45;5.37;;;2.27;;
67156;SDS011;54086;50.126;8.710;2022-09-03T08:20:10;7.00;;;2.83;;
67156;SDS011;54086;50.126;8.710;2022-09-03T08:22:36;5.80;;;3.00;;
67156;SDS011;54086;50.126;8.710;2022-09-03T08:25:03;7.13;;;2.70;;
67156;SDS011;54086;50.126;8.710;2022-09-03T08:27:30;5.22;;;2.72;;
67156;SDS011;54086;50.126;8.710;2022-09-03T08:29:55;7.47;;;3.20;;
67156;SDS011;54086;50.126;8.710;2022-09-03T08:32:21;7.83;;;3.20;;
67156;SDS011;54086;50.126;8.710;2022-09-03T08:34:46;8.23;;;3.50;;
67156;SDS011;54086;50.126;8.710;2022-09-03T08:37:12;8.35;;;3.38;;
67156;SDS011;54086;50.126;8.710;2022-09-03T08:39:37;5.70;;;3.10;;
67156;SDS011;54086;50.126;8.710;2022-09-03T08:44:39;7.78;;;3.55;;
67156;SDS011;54086;50.126;8.710;2022-09-03T08:57:49;10.45;;;4.60;;
67156;SDS011;54086;50.126;8.710;2022-09-03T09:00:18;7.80;;;3.60;;
67156;SDS011;54086;50.126;8.710;2022-09-03T09:16:35;9.07;;;3.63;;
67156;SDS011;54086;50.126;8.710;2022-09-03T09:19:18;10.27;;;4.20;;
67156;SDS011;54086;50.126;8.710;2022-09-03T09:22:01;9.13;;;4.18;;
67156;SDS011;54086;50.126;8.710;2022-09-03T09:24:34;9.40;;;4.70;;
67156;SDS011;54086;50.126;8.710;2022-09-03T09:27:04;8.18;;;4.00;;
67156;SDS011;54086;50.126;8.710;2022-09-03T09:29:36;7.18;;;4.10;;
67156;SDS011;54086;50.126;8.710;2022-09-03T09:32:03;7.88;;;3.10;;
67156;SDS011;54086;50.126;8.710;2022-09-03T09:34:34;6.93;;;3.47;;
67156;SDS011;54086;50.126;8.710;2022-09-03T09:37:07;6.53;;;3.40;;
67156;SDS011;54086;50.126;8.710;2022-09-03T09:39:35;7.60;;;3.75;;
67156;SDS011;54086;50.126;8.710;2022-09-03T09:42:01;7.70;;;4.32;;
67156;SDS011;54086;50.126;8.710;2022-09-03T09:44:33;7.97;;;4.47;;
67156;SDS011;54086;50.126;8.710;2022-09-03T09:47:05;8.97;;;4.27;;
67156;SDS011;54086;50.126;8.710;2022-09-03T09:49:51;7.72;;;4.03;;
67156;SDS011;54086;50.126;8.710;2022-09-03T09:52:20;11.20;;;4.40;;
67156;SDS011;54086;50.126;8.710;2022-09-03T09:54:50;8.00;;;4.30;;
67156;SDS011;54086;50.126;8.710;2022-09-03T09:57:25;7.63;;;3.85;;
67156;SDS011;54086;50.126;8.710;2022-09-03T10:00:00;8.20;;;3.73;;
67156;SDS011;54086;50.126;8.710;2022-09-03T10:02:33;8.15;;;3.67;;
67156;SDS011;54086;50.126;8.710;2022-09-03T10:05:01;10.55;;;4.32;;
67156;SDS011;54086;50.126;8.710;2022-09-03T10:08:04;7.85;;;4.25;;
67156;SDS011;54086;50.126;8.710;2022-09-03T10:10:43;11.70;;;4.03;;
67156;SDS011;54086;50.126;8.710;2022-09-03T10:13:17;9.63;;;4.00;;
67156;SDS011;54086;50.126;8.710;2022-09-03T10:15:54;7.75;;;4.00;;
67156;SDS011;54086;50.126;8.710;2022-09-03T10:18:28;8.80;;;3.97;;
67156;SDS011;54086;50.126;8.710;2022-09-03T10:21:11;7.25;;;3.90;;
67156;SDS011;54086;50.126;8.710;2022-09-03T10:26:28;9.17;;;4.40;;
67156;SDS011;54086;50.126;8.710;2022-09-03T10:29:01;8.98;;;4.25;;
67156;SDS011;54086;50.126;8.710;2022-09-03T10:34:06;7.93;;;3.90;;
67156;SDS011;54086;50.126;8.710;2022-09-03T10:43:01;8.50;;;4.00;;
67156;SDS011;54086;50.126;8.710;2022-09-03T10:45:58;6.55;;;3.70;;
67156;SDS011;54086;50.126;8.710;2022-09-03T10:48:38;8.45;;;3.80;;
67156;SDS011;54086;50.126;8.710;2022-09-03T10:51:12;6.95;;;4.00;;
67156;SDS011;54086;50.126;8.710;2022-09-03T10:53:46;7.93;;;4.00;;
67156;SDS011;54086;50.126;8.710;2022-09-03T11:07:06;8.07;;;3.57;;
67156;SDS011;54086;50.126;8.710;2022-09-03T11:12:12;9.27;;;4.05;;
67156;SDS011;54086;50.126;8.710;2022-09-03T11:14:49;8.10;;;4.10;;
67156;SDS011;54086;50.126;8.710;2022-09-03T11:17:40;7.47;;;4.18;;
67156;SDS011;54086;50.126;8.710;2022-09-03T11:22:32;7.68;;;4.05;;
67156;SDS011;54086;50.126;8.710;2022-09-03T11:24:58;7.43;;;4.40;;
67156;SDS011;54086;50.126;8.710;2022-09-03T11:30:32;7.30;;;4.45;;
67156;SDS011;54086;50.126;8.710;2022-09-03T11:33:16;7.38;;;4.68;;
67156;SDS011;54086;50.126;8.710;2022-09-03T11:35:43;7.18;;;4.47;;
67156;SDS011;54086;50.126;8.710;2022-09-03T11:41:03;10.65;;;4.70;;
67156;SDS011;54086;50.126;8.710;2022-09-03T11:43:38;8.38;;;4.05;;
67156;SDS011;54086;50.126;8.710;2022-09-03T11:46:12;7.38;;;4.22;;
67156;SDS011;54086;50.126;8.710;2022-09-03T11:48:52;8.50;;;4.50;;
67156;SDS011;54086;50.126;8.710;2022-09-03T11:56:26;9.73;;;5.03;;
67156;SDS011;54086;50.126;8.710;2022-09-03T11:59:24;8.87;;;4.33;;
67156;SDS011;54086;50.126;8.710;2022-09-03T12:05:11;7.85;;;4.28;;
67156;SDS011;54086;50.126;8.710;2022-09-03T12:08:10;9.18;;;4.30;;
67156;SDS011;54086;50.126;8.710;2022-09-03T12:10:52;8.55;;;4.07;;
67156;SDS011;54086;50.126;8.710;2022-09-03T12:18:42;6.68;;;3.83;;
67156;SDS011;54086;50.126;8.710;2022-09-03T12:21:09;7.85;;;4.07;;
67156;SDS011;54086;50.126;8.710;2022-09-03T12:23:43;7.13;;;4.00;;
67156;SDS011;54086;50.126;8.710;2022-09-03T12:26:28;6.77;;;3.77;;
67156;SDS011;54086;50.126;8.710;2022-09-03T12:28:55;6.70;;;3.67;;
67156;SDS011;54086;50.126;8.710;2022-09-03T12:31:22;6.45;;;3.70;;
67156;SDS011;54086;50.126;8.710;2022-09-03T12:34:07;8.15;;;3.83;;
67156;SDS011;54086;50.126;8.710;2022-09-03T12:36:36;6.70;;;4.00;;
67156;SDS011;54086;50.126;8.710;2022-09-03T12:39:11;7.22;;;3.60;;
67156;SDS011;54086;50.126;8.710;2022-09-03T12:41:38;6.40;;;3.45;;
67156;SDS011;54086;50.126;8.710;2022-09-03T12:44:13;6.30;;;3.35;;
67156;SDS011;54086;50.126;8.710;2022-09-03T12:46:39;7.17;;;3.60;;
67156;SDS011;54086;50.126;8.710;2022-09-03T12:49:05;9.20;;;4.00;;
67156;SDS011;54086;50.126;8.710;2022-09-03T12:51:38;6.40;;;3.65;;
67156;SDS011;54086;50.126;8.710;2022-09-03T12:54:07;7.17;;;3.30;;
67156;SDS011;54086;50.126;8.710;2022-09-03T12:56:39;7.72;;;3.15;;
67156;SDS011;54086;50.126;8.710;2022-09-03T12:59:14;6.72;;;3.63;;
67156;SDS011;54086;50.126;8.710;2022-09-03T13:01:50;6.60;;;3.25;;
67156;SDS011;54086;50.126;8.710;2022-09-03T13:04:20;7.30;;;3.47;;
67156;SDS011;54086;50.126;8.710;2022-09-03T13:06:59;6.53;;;3.50;;
67156;SDS011;54086;50.126;8.710;2022-09-03T13:09:44;7.53;;;3.80;;
67156;SDS011;54086;50.126;8.710;2022-09-03T13:12:20;7.20;;;3.20;;
67156;SDS011;54086;50.126;8.710;2022-09-03T13:14:56;6.47;;;3.58;;
67156;SDS011;54086;50.126;8.710;2022-09-03T13:17:36;6.97;;;3.50;;
67156;SDS011;54086;50.126;8.710;2022-09-03T13:20:22;8.57;;;3.75;;
67156;SDS011;54086;50.126;8.710;2022-09-03T13:31:44;6.73;;;3.47;;
67156;SDS011;54086;50.126;8.710;2022-09-03T13:33:59;11.73;;;3.85;;
67156;SDS011;54086;50.126;8.710;2022-09-03T13:36:29;6.03;;;3.10;;
67156;SDS011;54086;50.126;8.710;2022-09-03T13:39:02;6.45;;;3.28;;
67156;SDS011;54086;50.126;8.710;2022-09-03T13:41:38;6.68;;;3.60;;
67156;SDS011;54086;50.126;8.710;2022-09-03T13:44:15;7.60;;;3.47;;
67156;SDS011;54086;50.126;8.710;2022-09-03T13:46:45;6.68;;;3.08;;
67156;SDS011;54086;50.126;8.710;2022-09-03T13:55:27;7.45;;;3.80;;
67156;SDS011;54086;50.126;8.710;2022-09-03T13:58:17;6.00;;;3.30;;
67156;SDS011;54086;50.126;8.710;2022-09-03T14:11:31;5.63;;;3.17;;
67156;SDS011;54086;50.126;8.710;2022-09-03T14:14:12;6.35;;;3.20;;
67156;SDS011;54086;50.126;8.710;2022-09-03T14:17:12;6.25;;;3.22;;
67156;SDS011;54086;50.126;8.710;2022-09-03T14:19:59;6.37;;;3.33;;
67156;SDS011;54086;50.126;8.710;2022-09-03T14:25:16;6.50;;;3.10;;
67156;SDS011;54086;50.126;8.710;2022-09-03T14:27:44;6.80;;;3.03;;
67156;SDS011;54086;50.126;8.710;2022-09-03T14:36:27;6.15;;;2.97;;
67156;SDS011;54086;50.126;8.710;2022-09-03T14:39:02;5.95;;;2.72;;
67156;SDS011;54086;50.126;8.710;2022-09-03T14:47:22;5.47;;;2.80;;
67156;SDS011;54086;50.126;8.710;2022-09-03T14:50:03;6.57;;;3.15;;
67156;SDS011;54086;50.126;8.710;2022-09-03T14:58:38;5.30;;;2.50;;
67156;SDS011;54086;50.126;8.710;2022-09-03T15:01:28;5.43;;;2.80;;
67156;SDS011;54086;50.126;8.710;2022-09-03T15:12:48;7.25;;;2.65;;
67156;SDS011;54086;50.126;8.710;2022-09-03T15:15:31;7.07;;;2.90;;
67156;SDS011;54086;50.126;8.710;2022-09-03T15:20:52;5.18;;;2.72;;
67156;SDS011;54086;50.126;8.710;2022-09-03T15:23:23;5.53;;;2.63;;
67156;SDS011;54086;50.126;8.710;2022-09-03T15:34:30;5.15;;;2.42;;
67156;SDS011;54086;50.126;8.710;2022-09-03T15:37:00;5.13;;;2.42;;
67156;SDS011;54086;50.126;8.710;2022-09-03T15:39:34;5.80;;;3.00;;
67156;SDS011;54086;50.126;8.710;2022-09-03T15:42:06;6.40;;;3.17;;
67156;SDS011;54086;50.126;8.710;2022-09-03T15:44:42;6.60;;;2.90;;
67156;SDS011;54086;50.126;8.710;2022-09-03T15:47:13;5.05;;;2.20;;
67156;SDS011;54086;50.126;8.710;2022-09-03T15:50:24;4.90;;;2.20;;
67156;SDS011;54086;50.126;8.710;2022-09-03T15:56:11;6.32;;;2.75;;
67156;SDS011;54086;50.126;8.710;2022-09-03T15:59:09;12.43;;;7.97;;
67156;SDS011;54086;50.126;8.710;2022-09-03T16:15:08;6.90;;;4.27;;
67156;SDS011;54086;50.126;8.710;2022-09-03T16:17:38;6.40;;;2.75;;
67156;SDS011;54086;50.126;8.710;2022-09-03T16:20:16;11.73;;;9.43;;
67156;SDS011;54086;50.126;8.710;2022-09-03T16:23:04;6.82;;;3.47;;
67156;SDS011;54086;50.126;8.710;2022-09-03T16:25:51;7.43;;;4.40;;
67156;SDS011;54086;50.126;8.710;2022-09-03T16:28:23;7.27;;;3.90;;
67156;SDS011;54086;50.126;8.710;2022-09-03T16:31:14;6.97;;;3.65;;
67156;SDS011;54086;50.126;8.710;2022-09-03T16:34:22;7.13;;;3.53;;
67156;SDS011;54086;50.126;8.710;2022-09-03T16:48:24;7.05;;;3.70;;
67156;SDS011;54086;50.126;8.710;2022-09-03T16:50:55;8.45;;;5.20;;
67156;SDS011;54086;50.126;8.710;2022-09-03T16:56:51;7.03;;;3.53;;
67156;SDS011;54086;50.126;8.710;2022-09-03T17:12:22;11.50;;;3.40;;
67156;SDS011;54086;50.126;8.710;2022-09-03T17:15:05;8.05;;;4.00;;
67156;SDS011;54086;50.126;8.710;2022-09-03T17:23:20;8.52;;;4.10;;
67156;SDS011;54086;50.126;8.710;2022-09-03T17:25:55;9.00;;;4.53;;
67156;SDS011;54086;50.126;8.710;2022-09-03T17:39:59;5.30;;;2.30;;
67156;SDS011;54086;50.126;8.710;2022-09-03T18:01:47;5.32;;;1.80;;
67156;SDS011;54086;50.126;8.710;2022-09-03T18:07:30;5.77;;;1.97;;
67156;SDS011;54086;50.126;8.710;2022-09-03T18:18:28;7.10;;;3.15;;
67156;SDS011;54086;50.126;8.710;2022-09-03T18:20:56;7.63;;;2.80;;
67156;SDS011;54086;50.126;8.710;2022-09-03T18:23:51;5.68;;;2.10;;
67156;SDS011;54086;50.126;8.710;2022-09-03T18:26:44;5.55;;;2.20;;
67156;SDS011;54086;50.126;8.710;2022-09-03T18:29:33;8.50;;;2.90;;
67156;SDS011;54086;50.126;8.710;2022-09-03T18:32:22;8.10;;;2.65;;
67156;SDS011;54086;50.126;8.710;2022-09-03T18:35:07;9.07;;;5.73;;
67156;SDS011;54086;50.126;8.710;2022-09-03T18:37:52;8.93;;;4.15;;
67156;SDS011;54086;50.126;8.710;2022-09-03T18:40:42;7.70;;;4.38;;
67156;SDS011;54086;50.126;8.710;2022-09-03T18:43:41;5.82;;;2.10;;
67156;SDS011;54086;50.126;8.710;2022-09-03T18:46:40;5.32;;;1.77;;
67156;SDS011;54086;50.126;8.710;2022-09-03T18:52:39;6.32;;;2.08;;
67156;SDS011;54086;50.126;8.710;2022-09-03T18:55:38;17.38;;;10.05;;
67156;SDS011;54086;50.126;8.710;2022-09-03T18:58:41;12.57;;;7.38;;
67156;SDS011;54086;50.126;8.710;2022-09-03T19:01:42;8.02;;;4.60;;
67156;SDS011;54086;50.126;8.710;2022-09-03T19:08:00;6.95;;;3.38;;
67156;SDS011;54086;50.126;8.710;2022-09-03T19:10:54;8.75;;;4.25;;
67156;SDS011;54086;50.126;8.710;2022-09-03T19:13:40;7.78;;;3.20;;
67156;SDS011;54086;50.126;8.710;2022-09-03T19:19:34;7.53;;;3.93;;
67156;SDS011;54086;50.126;8.710;2022-09-03T19:22:32;7.32;;;2.45;;
67156;SDS011;54086;50.126;8.710;2022-09-03T19:25:16;5.78;;;1.98;;
67156;SDS011;54086;50.126;8.710;2022-09-03T19:37:43;7.15;;;2.20;;
67156;SDS011;54086;50.126;8.710;2022-09-03T19:43:49;4.75;;;1.73;;
67156;SDS011;54086;50.126;8.710;2022-09-03T19:52:35;5.45;;;2.35;;
67156;SDS011;54086;50.126;8.710;2022-09-03T19:55:44;5.68;;;1.90;;
67156;SDS011;54086;50.126;8.710;2022-09-03T19:58:31;7.72;;;2.17;;
67156;SDS011;54086;50.126;8.710;2022-09-03T20:01:17;4.55;;;1.90;;
67156;SDS011;54086;50.126;8.710;2022-09-03T20:04:05;5.10;;;2.03;;
67156;SDS011;54086;50.126;8.710;2022-09-03T20:06:55;7.70;;;2.20;;
67156;SDS011;54086;50.126;8.710;2022-09-03T20:09:41;6.53;;;2.00;;
67156;SDS011;54086;50.126;8.710;2022-09-03T20:12:26;6.80;;;2.25;;
67156;SDS011;54086;50.126;8.710;2022-09-03T20:14:57;5.65;;;1.98;;
67156;SDS011;54086;50.126;8.710;2022-09-03T20:20:31;6.40;;;2.20;;
67156;SDS011;54086;50.126;8.710;2022-09-03T20:26:00;10.35;;;2.70;;
67156;SDS011;54086;50.126;8.710;2022-09-03T20:31:16;8.82;;;3.30;;
67156;SDS011;54086;50.126;8.710;2022-09-03T20:39:41;8.93;;;3.58;;
67156;SDS011;54086;50.126;8.710;2022-09-03T20:45:17;8.30;;;2.88;;
67156;SDS011;54086;50.126;8.710;2022-09-03T20:47:52;5.60;;;1.75;;
67156;SDS011;54086;50.126;8.710;2022-09-03T20:50:53;4.60;;;1.73;;
67156;SDS011;54086;50.126;8.710;2022-09-03T20:58:57;5.75;;;1.80;;
67156;SDS011;54086;50.126;8.710;2022-09-03T21:06:54;5.85;;;1.90;;
67156;SDS011;54086;50.126;8.710;2022-09-03T21:12:33;4.60;;;1.65;;
67156;SDS011;54086;50.126;8.710;2022-09-03T21:15:08;5.95;;;1.90;;
67156;SDS011;54086;50.126;8.710;2022-09-03T21:17:37;5.43;;;1.83;;
67156;SDS011;54086;50.126;8.710;2022-09-03T21:20:23;5.57;;;1.90;;